Time;durP1;ratioP1;P1;durP2;ratioP2;P2;SDS_P1;SDS_P2;PMS_P1;PMS_P2;Temp;Humidity;BMP_temperature;BMP_pressure;BME280_temperature;BME280_humidity;BME280_pressure;Samples;Min_cycle;Max_cycle;Signal;HPM_P1;HPM_P2
2022/08/15 00:01:19;;;;;;;5.55;4.22;;;;;;;20.53;48.46;100496.31;4971029;28;20152;-79
2022/08/15 00:03:48;;;;;;;9.50;4.22;;;;;;;20.46;48.19;100495.16;4968919;28;20120;-77
2022/08/15 00:06:27;;;;;;;8.18;3.55;;;;;;;20.52;48.48;100491.94;4987455;28;20049;-78
2022/08/15 00:08:55;;;;;;;5.40;3.97;;;;;;;20.63;47.95;100488.34;4986716;28;20049;-79
2022/08/15 00:11:31;;;;;;;9.32;3.30;;;;;;;20.40;48.42;100484.25;4986741;28;20046;-78
2022/08/15 00:14:00;;;;;;;4.38;3.45;;;;;;;20.21;49.35;100485.00;4965434;28;20073;-78
2022/08/15 00:16:32;;;;;;;6.82;3.25;;;;;;;20.04;49.75;100484.66;4981325;28;20029;-79
2022/08/15 00:18:58;;;;;;;5.30;3.70;;;;;;;19.96;50.54;100479.16;4958337;28;20506;-79
2022/08/15 00:21:24;;;;;;;4.55;3.63;;;;;;;19.82;50.55;100477.69;4965276;28;20058;-77
2022/08/15 00:23:50;;;;;;;7.68;3.67;;;;;;;19.60;50.68;100478.69;4967225;28;20425;-78
2022/08/15 00:26:15;;;;;;;6.07;3.83;;;;;;;19.84;50.06;100477.56;4958610;28;20043;-78
2022/08/15 00:28:41;;;;;;;9.68;3.88;;;;;;;19.97;50.25;100475.53;4960328;28;20050;-77
2022/08/15 00:31:10;;;;;;;3.88;3.28;;;;;;;20.04;50.66;100471.38;4951208;28;20035;-79
2022/08/15 00:33:35;;;;;;;9.70;4.43;;;;;;;20.04;50.34;100465.25;4964243;28;20062;-77
2022/08/15 00:36:01;;;;;;;4.68;3.58;;;;;;;20.01;50.36;100461.00;4985301;28;20066;-78
2022/08/15 00:38:28;;;;;;;12.05;3.80;;;;;;;20.01;50.26;100463.66;4962201;28;20125;-75
2022/08/15 00:43:50;;;;;;;4.90;4.00;;;;;;;20.08;50.21;100456.88;5000894;28;20061;-76
2022/08/15 00:46:17;;;;;;;10.30;4.22;;;;;;;20.09;50.00;100453.25;4987505;28;20022;-78
2022/08/15 00:48:43;;;;;;;6.93;3.75;;;;;;;20.11;49.66;100450.47;4977144;28;20074;-77
2022/08/15 00:51:27;;;;;;;7.03;4.07;;;;;;;20.02;49.62;100451.28;4985366;28;21464;-77
2022/08/15 00:54:19;;;;;;;6.40;3.92;;;;;;;19.99;49.87;100449.69;4964163;28;20616;-80
2022/08/15 00:56:49;;;;;;;4.90;3.53;;;;;;;20.02;49.73;100443.31;4982780;28;20129;-79
2022/08/15 00:59:20;;;;;;;8.88;3.67;;;;;;;20.04;49.43;100447.50;4970890;28;20503;-77
2022/08/15 01:01:46;;;;;;;8.25;4.15;;;;;;;19.98;49.88;100440.06;4977094;28;20133;-78
2022/08/15 01:04:14;;;;;;;3.80;3.50;;;;;;;19.97;49.78;100432.25;4972361;28;20052;-76
2022/08/15 01:06:41;;;;;;;5.50;3.95;;;;;;;19.98;50.09;100439.25;4974703;28;20441;-74
2022/08/15 01:09:09;;;;;;;4.20;3.80;;;;;;;19.91;49.73;100445.06;4959991;28;20497;-77
2022/08/15 01:11:41;;;;;;;4.63;3.40;;;;;;;19.98;49.71;100440.06;4956618;28;20038;-77
2022/08/15 01:14:07;;;;;;;4.47;3.80;;;;;;;19.94;49.45;100443.13;4944979;28;20325;-78
2022/08/15 01:16:38;;;;;;;4.38;3.97;;;;;;;19.97;49.76;100437.53;4966490;28;20580;-76
2022/08/15 01:19:29;;;;;;;5.45;4.07;;;;;;;20.00;49.44;100438.13;4969316;28;20508;-81
2022/08/15 01:22:16;;;;;;;7.10;4.03;;;;;;;20.00;49.20;100437.28;4988672;28;20118;-81
2022/08/15 01:25:00;;;;;;;6.22;4.15;;;;;;;19.96;49.09;100442.03;4972408;28;20045;-77
2022/08/15 01:27:34;;;;;;;11.50;3.55;;;;;;;19.88;49.77;100429.44;4987145;28;20129;-77
2022/08/15 01:30:01;;;;;;;6.03;3.75;;;;;;;19.91;49.19;100433.63;4966002;28;20044;-80
2022/08/15 01:32:27;;;;;;;4.30;3.90;;;;;;;19.86;49.35;100425.22;4989458;28;20046;-77
2022/08/15 01:34:52;;;;;;;7.30;4.45;;;;;;;19.65;49.42;100423.44;4972405;28;20039;-79
2022/08/15 01:37:19;;;;;;;5.43;3.88;;;;;;;19.85;48.92;100423.53;4987552;28;20042;-79
2022/08/15 01:39:58;;;;;;;7.07;3.88;;;;;;;19.86;49.15;100425.22;4970147;28;20030;-80
2022/08/15 01:42:34;;;;;;;4.50;3.55;;;;;;;19.79;48.90;100418.78;4965771;28;20050;-81
2022/08/15 01:45:10;;;;;;;6.40;4.03;;;;;;;19.84;48.53;100422.72;4978363;28;20055;-79
2022/08/15 01:48:00;;;;;;;5.93;3.92;;;;;;;19.79;49.09;100419.63;4967448;28;20038;-78
2022/08/15 01:50:33;;;;;;;6.18;4.40;;;;;;;19.77;48.51;100418.06;4989943;28;20025;-77
2022/08/15 01:53:30;;;;;;;4.45;4.00;;;;;;;19.74;48.60;100415.69;4987649;28;20073;-80
2022/08/15 01:56:11;;;;;;;6.85;3.63;;;;;;;19.78;48.58;100411.78;4969032;28;20074;-76
2022/08/15 01:58:41;;;;;;;7.60;3.43;;;;;;;19.77;48.40;100413.63;4999732;28;20501;-77
2022/08/15 02:01:14;;;;;;;4.47;3.95;;;;;;;19.77;48.43;100410.09;4982958;28;20038;-77
2022/08/15 02:03:42;;;;;;;7.63;5.03;;;;;;;19.78;48.19;100412.63;4980814;28;20053;-79
2022/08/15 02:06:23;;;;;;;5.43;3.80;;;;;;;19.69;48.49;100408.97;4986433;28;20022;-76
2022/08/15 02:08:52;;;;;;;6.55;3.53;;;;;;;19.84;48.25;100411.28;4985007;28;20085;-76
2022/08/15 02:11:21;;;;;;;4.65;4.18;;;;;;;19.85;48.31;100397.84;4971488;28;20030;-78
2022/08/15 02:13:48;;;;;;;4.05;3.70;;;;;;;19.70;48.37;100402.69;4982338;28;20038;-77
2022/08/15 02:16:17;;;;;;;5.38;3.78;;;;;;;19.80;48.34;100404.56;4988891;28;20109;-78
2022/08/15 02:18:43;;;;;;;5.63;3.78;;;;;;;19.81;48.25;100400.91;4971226;28;20086;-77
2022/08/15 02:21:10;;;;;;;4.93;4.15;;;;;;;19.81;47.95;100411.53;4965590;28;20116;-78
2022/08/15 02:23:36;;;;;;;9.50;4.05;;;;;;;19.81;48.15;100409.69;4982147;28;20056;-77
2022/08/15 02:26:04;;;;;;;5.43;3.40;;;;;;;19.64;48.46;100411.19;4988019;28;20046;-77
2022/08/15 02:28:30;;;;;;;6.63;3.65;;;;;;;19.67;48.42;100404.75;4972906;28;20039;-78
2022/08/15 02:30:59;;;;;;;8.95;4.10;;;;;;;19.66;48.35;100409.25;4966090;28;20032;-77
2022/08/15 02:33:27;;;;;;;7.32;4.93;;;;;;;19.70;48.55;100405.34;4975997;28;20041;-78
2022/08/15 02:35:53;;;;;;;5.53;3.53;;;;;;;19.76;47.93;100403.13;4992617;28;20042;-80
2022/08/15 02:38:20;;;;;;;3.53;3.15;;;;;;;19.86;47.66;100420.78;4984161;28;20042;-81
2022/08/15 02:40:49;;;;;;;3.97;3.50;;;;;;;19.97;48.32;100414.53;4974973;28;20580;-78
2022/08/15 02:43:17;;;;;;;4.72;4.10;;;;;;;19.82;47.95;100418.53;4988292;28;20074;-77
2022/08/15 02:45:47;;;;;;;5.78;4.35;;;;;;;19.84;48.26;100405.97;4991656;28;20026;-79
2022/08/15 02:48:14;;;;;;;4.68;3.30;;;;;;;19.91;48.50;100412.41;4987458;28;20050;-79
2022/08/15 02:50:41;;;;;;;7.72;3.78;;;;;;;19.94;48.05;100404.19;4984450;28;20031;-78
2022/08/15 02:53:17;;;;;;;4.45;3.30;;;;;;;19.77;49.21;100399.50;4973817;28;20037;-78
2022/08/15 02:55:45;;;;;;;3.47;3.17;;;;;;;19.76;49.17;100395.19;4949503;28;20031;-78
2022/08/15 02:58:12;;;;;;;4.80;3.55;;;;;;;19.62;49.85;100394.56;4962289;28;20034;-77
2022/08/15 03:00:41;;;;;;;9.68;4.22;;;;;;;19.23;50.50;100391.69;4975364;28;20077;-78
2022/08/15 03:03:17;;;;;;;7.63;3.95;;;;;;;19.09;50.87;100386.69;5008101;28;20109;-81
2022/08/15 03:05:48;;;;;;;4.43;3.95;;;;;;;18.95;51.32;100393.13;4992615;28;20033;-77
2022/08/15 03:08:14;;;;;;;5.55;3.58;;;;;;;18.91;51.44;100396.16;4979470;28;20547;-76
2022/08/15 03:10:41;;;;;;;6.28;4.22;;;;;;;18.94;51.24;100391.44;4993762;28;20035;-76
2022/08/15 03:13:14;;;;;;;6.25;4.30;;;;;;;19.05;51.13;100382.59;4968264;28;20113;-79
2022/08/15 03:15:55;;;;;;;4.47;4.07;;;;;;;19.11;50.84;100376.81;4994821;28;20061;-78
2022/08/15 03:18:24;;;;;;;8.90;4.25;;;;;;;19.13;51.21;100369.56;4989964;28;20461;-76
2022/08/15 03:20:51;;;;;;;6.18;4.15;;;;;;;19.14;50.36;100373.03;4960101;28;20034;-80
2022/08/15 03:23:22;;;;;;;5.35;3.85;;;;;;;19.08;50.96;100369.97;5002855;28;20038;-80
2022/08/15 03:25:51;;;;;;;8.35;4.25;;;;;;;19.05;51.26;100367.53;4980749;28;20572;-78
2022/08/15 03:28:20;;;;;;;4.88;4.45;;;;;;;19.05;51.21;100359.59;4958747;28;20103;-78
2022/08/15 03:30:45;;;;;;;4.72;3.70;;;;;;;19.05;52.01;100356.94;4974700;28;20177;-78
2022/08/15 03:33:12;;;;;;;3.63;3.33;;;;;;;19.07;52.11;100348.88;4972508;28;20077;-78
2022/08/15 03:35:45;;;;;;;4.80;4.40;;;;;;;19.05;53.05;100342.88;4993908;28;20516;-77
2022/08/15 03:38:15;;;;;;;4.50;4.10;;;;;;;18.98;53.39;100339.06;4982656;28;20055;-79
2022/08/15 03:40:43;;;;;;;5.90;4.35;;;;;;;18.90;52.39;100352.97;4971686;28;20502;-78
2022/08/15 03:43:13;;;;;;;8.00;4.57;;;;;;;18.94;51.71;100342.94;4972199;28;20559;-79
2022/08/15 03:45:47;;;;;;;6.45;5.03;;;;;;;19.00;51.09;100348.56;4979346;28;20026;-78
2022/08/15 03:48:14;;;;;;;4.63;4.20;;;;;;;19.09;51.20;100341.66;4976897;28;20042;-75
2022/08/15 03:50:41;;;;;;;4.63;4.10;;;;;;;19.16;50.82;100348.09;4988702;28;20467;-77
2022/08/15 03:53:07;;;;;;;7.53;4.40;;;;;;;19.08;50.96;100343.47;4971232;28;20097;-77
2022/08/15 03:55:37;;;;;;;5.10;4.63;;;;;;;19.10;50.46;100343.34;4975830;28;20380;-79
2022/08/15 03:58:04;;;;;;;6.35;4.63;;;;;;;19.15;48.97;100342.97;4970616;28;20042;-77
2022/08/15 04:00:43;;;;;;;7.82;4.05;;;;;;;19.17;49.49;100335.72;4990097;28;20034;-76
2022/08/15 04:03:15;;;;;;;7.50;4.50;;;;;;;19.22;49.27;100326.41;4978679;28;20110;-79
2022/08/15 04:05:49;;;;;;;5.65;4.57;;;;;;;19.15;49.07;100338.50;5000501;28;20085;-76
2022/08/15 04:08:18;;;;;;;9.07;4.32;;;;;;;19.20;49.01;100338.94;4976581;28;20733;-77
2022/08/15 04:10:46;;;;;;;6.07;4.30;;;;;;;19.10;49.07;100343.34;4985665;28;20081;-78
2022/08/15 04:13:12;;;;;;;7.88;4.38;;;;;;;19.01;48.64;100342.31;4971756;28;20511;-79
2022/08/15 04:15:38;;;;;;;6.40;4.20;;;;;;;19.15;48.24;100335.84;4993523;28;20030;-76
2022/08/15 04:18:05;;;;;;;5.32;3.67;;;;;;;19.19;48.38;100339.91;4980657;28;20093;-78
2022/08/15 04:20:32;;;;;;;6.38;4.25;;;;;;;19.25;48.22;100339.38;4988001;28;20030;-78
2022/08/15 04:23:01;;;;;;;8.88;4.15;;;;;;;19.17;48.05;100344.50;4984211;28;20129;-77
2022/08/15 04:25:34;;;;;;;4.65;3.83;;;;;;;19.33;47.80;100338.72;4961059;28;20050;-78
2022/08/15 04:28:03;;;;;;;4.57;4.18;;;;;;;19.44;47.86;100348.41;4978943;28;20038;-79
2022/08/15 04:30:32;;;;;;;9.20;4.93;;;;;;;19.44;47.70;100340.47;4981671;28;20057;-78
2022/08/15 04:33:21;;;;;;;4.82;4.18;;;;;;;19.45;47.57;100347.44;5006132;28;20588;-78
2022/08/15 04:35:52;;;;;;;5.05;4.45;;;;;;;19.45;47.51;100342.97;4972966;28;20034;-77
2022/08/15 04:38:19;;;;;;;5.57;4.07;;;;;;;19.51;47.07;100341.59;4992234;28;20045;-76
2022/08/15 04:40:47;;;;;;;5.88;4.18;;;;;;;19.57;46.85;100341.13;4955365;28;20031;-78
2022/08/15 04:43:15;;;;;;;4.50;4.10;;;;;;;19.62;46.87;100338.91;4969244;28;20098;-77
2022/08/15 04:45:42;;;;;;;6.30;4.88;;;;;;;19.63;47.16;100340.56;4970832;28;20057;-75
2022/08/15 04:48:12;;;;;;;8.07;3.88;;;;;;;19.63;46.96;100337.91;4972789;28;20082;-78
2022/08/15 04:50:38;;;;;;;8.07;5.40;;;;;;;19.70;46.94;100336.44;4978976;28;20592;-76
2022/08/15 04:53:09;;;;;;;5.03;4.60;;;;;;;19.76;47.13;100334.19;4989270;28;20568;-78
2022/08/15 04:55:41;;;;;;;7.13;4.28;;;;;;;19.67;47.08;100339.31;4969185;28;20039;-78
2022/08/15 04:58:07;;;;;;;;;;;;;;;19.73;47.39;100339.78;4970964;28;20034;-77
2022/08/15 05:00:32;;;;;;;5.35;4.75;;;;;;;19.76;47.14;100342.16;4989020;28;19918;-77
2022/08/15 05:03:14;;;;;;;9.82;4.25;;;;;;;19.77;47.46;100342.03;4981527;28;20034;-78
2022/08/15 05:05:44;;;;;;;5.25;4.75;;;;;;;19.64;47.50;100342.25;4975624;28;20121;-77
2022/08/15 05:08:12;;;;;;;7.18;4.93;;;;;;;19.57;47.64;100337.59;4983534;28;20528;-75
2022/08/15 05:10:39;;;;;;;5.40;5.00;;;;;;;19.65;47.40;100343.09;4963689;28;20038;-78
2022/08/15 05:13:15;;;;;;;4.63;4.07;;;;;;;19.78;47.28;100343.69;4963066;28;20026;-76
2022/08/15 05:15:43;;;;;;;9.30;4.45;;;;;;;19.82;47.39;100341.63;4957861;28;20043;-76
2022/08/15 05:18:09;;;;;;;5.97;4.07;;;;;;;19.88;47.66;100343.72;4963120;28;20034;-77
2022/08/15 05:20:34;;;;;;;12.10;4.88;;;;;;;19.94;47.43;100348.47;4996027;28;20230;-77
2022/08/15 05:23:07;;;;;;;4.97;4.57;;;;;;;19.90;47.52;100342.63;4977353;28;20066;-79
2022/08/15 05:25:43;;;;;;;4.65;4.13;;;;;;;19.93;47.51;100344.16;4973072;28;20039;-80
2022/08/15 05:28:12;;;;;;;5.90;4.22;;;;;;;19.88;47.50;100352.53;4969603;28;20098;-79
2022/08/15 05:30:38;;;;;;;5.55;5.00;;;;;;;19.93;47.15;100349.47;4957501;28;20477;-77
2022/08/15 05:33:08;;;;;;;7.20;4.10;;;;;;;19.81;47.81;100345.22;4956846;28;20084;-80
2022/08/15 05:35:34;;;;;;;6.40;4.20;;;;;;;19.94;47.35;100337.88;4960261;28;20027;-77
2022/08/15 05:38:06;;;;;;;5.50;3.85;;;;;;;19.94;47.27;100337.03;4981057;28;20038;-80
2022/08/15 05:40:42;;;;;;;7.07;4.40;;;;;;;20.10;47.41;100348.81;4991417;28;20034;-80
2022/08/15 05:43:37;;;;;;;4.57;4.15;;;;;;;20.16;47.17;100341.28;4992383;28;20077;-77
2022/08/15 05:46:09;;;;;;;8.02;4.15;;;;;;;20.16;47.08;100336.81;5004326;28;20030;-78
2022/08/15 05:48:37;;;;;;;4.15;3.75;;;;;;;20.04;47.32;100337.91;4980570;28;20054;-78
2022/08/15 05:51:17;;;;;;;8.20;4.32;;;;;;;20.18;47.08;100328.72;4951508;28;20559;-77
2022/08/15 05:54:20;;;;;;;11.73;4.57;;;;;;;20.32;46.82;100331.81;4986361;28;20039;-77
2022/08/15 05:56:54;;;;;;;;;;;;;;;20.43;46.49;100330.03;4990382;28;20038;-78
2022/08/15 05:59:30;;;;;;;5.18;3.95;;;;;;;20.52;46.48;100319.41;4990436;28;19925;-78
2022/08/15 06:02:06;;;;;;;7.07;4.35;;;;;;;20.70;46.42;100324.00;4998739;28;20041;-79
2022/08/15 06:04:42;;;;;;;9.35;4.18;;;;;;;20.87;45.83;100326.00;4973819;28;20026;-78
2022/08/15 06:07:13;;;;;;;4.97;3.67;;;;;;;21.07;45.98;100323.31;4967905;28;20052;-77
2022/08/15 06:09:48;;;;;;;3.90;3.60;;;;;;;21.35;44.50;100330.34;4981735;28;20109;-78
2022/08/15 06:12:26;;;;;;;8.77;3.90;;;;;;;21.58;44.25;100326.50;5002945;28;20485;-79
2022/08/15 06:15:02;;;;;;;9.75;4.47;;;;;;;21.59;43.92;100330.84;4986843;28;20033;-81
2022/08/15 06:17:36;;;;;;;5.18;4.40;;;;;;;21.99;43.83;100330.50;4971463;28;20070;-80
2022/08/15 06:20:06;;;;;;;11.55;4.32;;;;;;;23.95;40.38;100341.81;4987424;28;20066;-80
2022/08/15 06:22:48;;;;;;;3.88;3.53;;;;;;;25.08;37.07;100338.59;4987473;28;20042;-80
2022/08/15 06:25:41;;;;;;;7.18;3.58;;;;;;;25.62;35.87;100338.81;4970325;28;20057;-77
2022/08/15 06:28:34;;;;;;;3.55;3.25;;;;;;;27.24;32.90;100337.00;4967258;28;20050;-78
2022/08/15 06:31:23;;;;;;;3.83;3.28;;;;;;;27.90;32.42;100347.81;4967591;28;20035;-79
2022/08/15 06:33:56;;;;;;;6.07;3.03;;;;;;;26.68;33.40;100358.81;4964437;28;20429;-77
2022/08/15 06:36:30;;;;;;;6.97;4.03;;;;;;;25.98;33.73;100361.59;4990772;28;20103;-78
2022/08/15 06:39:12;;;;;;;3.10;2.72;;;;;;;26.32;33.54;100371.13;4981459;28;20109;-77
2022/08/15 06:42:10;;;;;;;8.20;3.70;;;;;;;25.59;35.50;100365.09;4997303;28;20053;-78
2022/08/15 06:44:53;;;;;;;4.70;3.38;;;;;;;24.92;36.71;100374.19;4987206;28;20046;-79
2022/08/15 06:47:22;;;;;;;4.38;3.85;;;;;;;24.37;38.49;100388.13;4993788;28;20056;-77
2022/08/15 06:49:55;;;;;;;4.50;3.53;;;;;;;24.00;39.35;100386.72;4982267;28;20041;-77
2022/08/15 06:52:21;;;;;;;4.00;3.60;;;;;;;23.64;39.73;100394.03;4989999;28;20045;-75
2022/08/15 06:54:47;;;;;;;6.78;3.53;;;;;;;23.45;41.04;100381.75;4984933;28;20048;-79
2022/08/15 06:57:50;;;;;;;4.30;3.65;;;;;;;23.41;41.08;100392.75;4965003;28;20090;-76
2022/08/15 07:00:46;;;;;;;3.63;3.33;;;;;;;23.39;41.48;100396.56;4944199;28;20737;-78
2022/08/15 07:03:38;;;;;;;6.57;3.58;;;;;;;23.19;42.16;100386.06;4958630;28;20405;-77
2022/08/15 07:06:16;;;;;;;5.00;3.85;;;;;;;22.96;42.80;100384.88;4987670;28;20030;-77
2022/08/15 07:08:53;;;;;;;4.25;3.85;;;;;;;22.93;42.91;100393.19;4978863;28;20676;-77
2022/08/15 07:11:37;;;;;;;4.78;4.00;;;;;;;22.91;43.16;100388.00;4983377;28;20065;-76
2022/08/15 07:14:07;;;;;;;7.13;4.15;;;;;;;23.07;42.64;100383.78;4985951;28;20046;-78
2022/08/15 07:16:41;;;;;;;4.40;3.90;;;;;;;23.39;41.65;100381.38;5000343;28;20485;-77
2022/08/15 07:19:09;;;;;;;4.53;3.58;;;;;;;24.43;39.24;100376.81;4941113;28;20887;-76
2022/08/15 07:21:52;;;;;;;4.65;3.83;;;;;;;24.65;39.29;100381.53;4959312;28;20547;-77
2022/08/15 07:24:18;;;;;;;6.22;4.88;;;;;;;24.59;38.94;100376.88;4986476;28;20133;-78
2022/08/15 07:27:02;;;;;;;6.22;4.20;;;;;;;24.61;38.68;100372.16;4984102;28;20124;-77
2022/08/15 07:29:35;;;;;;;5.55;4.20;;;;;;;24.56;38.75;100369.16;4985212;28;20085;-78
2022/08/15 07:32:07;;;;;;;6.05;3.88;;;;;;;24.48;39.39;100382.53;4981983;28;20046;-78
2022/08/15 07:34:33;;;;;;;4.57;4.10;;;;;;;24.34;39.05;100385.78;4975438;28;20897;-78
2022/08/15 07:37:03;;;;;;;10.23;4.95;;;;;;;24.31;38.85;100386.13;4980348;28;20172;-77
2022/08/15 07:39:40;;;;;;;4.80;4.38;;;;;;;24.50;38.98;100388.50;4976895;28;20037;-79
2022/08/15 07:42:19;;;;;;;4.80;3.78;;;;;;;25.83;36.84;100389.06;4958149;28;20424;-76
2022/08/15 07:44:53;;;;;;;4.50;4.10;;;;;;;26.06;35.20;100402.53;4983066;28;20033;-77
2022/08/15 07:47:28;;;;;;;7.90;3.40;;;;;;;26.08;35.96;100402.38;4967081;28;20049;-77
2022/08/15 07:50:21;;;;;;;4.93;4.20;;;;;;;25.82;35.65;100400.81;4973141;28;20034;-77
2022/08/15 07:53:18;;;;;;;5.55;3.67;;;;;;;25.24;36.67;100412.59;4973999;28;20088;-78
2022/08/15 07:56:10;;;;;;;5.43;4.80;;;;;;;24.45;37.75;100404.22;4967635;28;20074;-76
2022/08/15 07:58:36;;;;;;;5.60;4.07;;;;;;;24.45;38.76;100398.88;4969438;28;20505;-78
2022/08/15 08:01:30;;;;;;;4.78;3.63;;;;;;;24.31;38.15;100396.81;4968030;28;20121;-76
2022/08/15 08:04:27;;;;;;;7.10;4.78;;;;;;;24.28;38.33;100408.66;4979222;28;20057;-76
2022/08/15 08:07:30;;;;;;;4.90;4.40;;;;;;;24.57;37.73;100405.59;4978356;28;20050;-78
2022/08/15 08:10:20;;;;;;;15.35;11.35;;;;;;;24.59;37.00;100408.91;4959324;28;20069;-78
2022/08/15 08:13:10;;;;;;;8.07;5.47;;;;;;;25.40;35.29;100403.75;4983862;28;20050;-76
2022/08/15 08:15:48;;;;;;;6.63;4.70;;;;;;;27.26;33.39;100394.00;4979179;28;20046;-78
2022/08/15 08:18:41;;;;;;;7.13;4.22;;;;;;;30.38;28.61;100387.09;4946217;28;20043;-79
2022/08/15 08:21:11;;;;;;;4.70;3.42;;;;;;;30.49;27.55;100387.50;4957255;28;20114;-79
2022/08/15 08:24:06;;;;;;;5.53;4.40;;;;;;;29.76;26.93;100380.84;4979478;28;20104;-77
2022/08/15 08:26:41;;;;;;;7.45;4.10;;;;;;;28.91;27.50;100369.31;4986218;28;20042;-77
2022/08/15 08:29:41;;;;;;;5.13;4.72;;;;;;;27.86;28.15;100378.75;4998878;28;20030;-78
2022/08/15 08:32:28;;;;;;;5.32;4.30;;;;;;;27.26;28.99;100374.41;4983507;28;20050;-79
2022/08/15 08:35:21;;;;;;;3.58;3.28;;;;;;;27.27;29.81;100370.69;4983038;28;20130;-77
2022/08/15 08:38:24;;;;;;;4.72;4.28;;;;;;;27.57;30.80;100370.72;4973538;28;20053;-76
2022/08/15 08:41:34;;;;;;;6.05;4.43;;;;;;;27.20;30.62;100364.38;4986253;28;20116;-76
2022/08/15 08:44:28;;;;;;;4.68;4.28;;;;;;;26.99;32.24;100365.09;4990599;28;20105;-80
2022/08/15 08:47:00;;;;;;;11.40;4.30;;;;;;;27.16;31.71;100363.09;4954987;28;20129;-79
2022/08/15 08:49:25;;;;;;;;;;;;;;;26.68;33.01;100364.16;4953401;28;20043;-78
2022/08/15 08:52:13;;;;;;;4.15;3.85;;;;;;;26.62;32.98;100364.88;4973827;28;19925;-76
2022/08/15 08:54:57;;;;;;;5.38;4.88;;;;;;;26.48;33.21;100365.63;4986040;28;20115;-77
2022/08/15 08:57:28;;;;;;;5.18;4.60;;;;;;;26.43;33.09;100368.84;4987032;28;20037;-79
2022/08/15 09:00:15;;;;;;;5.40;4.20;;;;;;;26.83;32.71;100374.13;4970344;28;20046;-78
2022/08/15 09:02:58;;;;;;;7.20;4.30;;;;;;;27.03;31.47;100369.91;4998556;28;20070;-80
2022/08/15 09:05:41;;;;;;;7.53;4.90;;;;;;;26.75;33.02;100377.69;4950061;28;20038;-80
2022/08/15 09:08:14;;;;;;;6.18;4.15;;;;;;;26.65;33.61;100377.94;4967497;28;20934;-78
2022/08/15 09:10:44;;;;;;;4.85;4.40;;;;;;;26.90;32.94;100378.56;4965578;28;20066;-77
2022/08/15 09:13:33;;;;;;;5.57;4.97;;;;;;;27.05;32.11;100375.91;4973695;28;20596;-78
2022/08/15 09:16:03;;;;;;;9.63;5.25;;;;;;;27.37;31.53;100368.56;4969234;28;20124;-78
2022/08/15 09:18:49;;;;;;;14.43;5.47;;;;;;;27.70;32.12;100373.59;4956185;28;20066;-79
2022/08/15 09:21:17;;;;;;;5.70;4.53;;;;;;;28.16;30.70;100370.66;4965871;28;20512;-78
2022/08/15 09:23:44;;;;;;;3.88;3.58;;;;;;;28.77;29.18;100372.94;4973607;28;20105;-79
2022/08/15 09:26:48;;;;;;;5.53;4.13;;;;;;;29.10;28.71;100364.25;4948112;28;20038;-77
2022/08/15 09:29:23;;;;;;;3.95;3.60;;;;;;;28.75;28.71;100364.22;4995855;28;20061;-79
2022/08/15 09:31:57;;;;;;;4.43;3.47;;;;;;;28.16;30.18;100364.44;4966089;28;20074;-78
2022/08/15 09:34:40;;;;;;;3.55;3.22;;;;;;;28.03;30.65;100365.09;4984779;28;20041;-77
2022/08/15 09:37:29;;;;;;;4.35;3.72;;;;;;;28.02;30.89;100358.06;4985230;28;20108;-80
2022/08/15 09:40:13;;;;;;;4.85;4.03;;;;;;;27.75;31.50;100363.13;4972002;28;20069;-79
2022/08/15 09:43:05;;;;;;;4.40;3.97;;;;;;;27.08;32.32;100362.13;4972755;28;20057;-80
2022/08/15 09:46:03;;;;;;;5.00;4.28;;;;;;;27.59;32.56;100360.63;4941024;28;20050;-77
2022/08/15 09:49:05;;;;;;;7.57;4.60;;;;;;;27.80;31.08;100360.69;4942143;28;20050;-82
2022/08/15 09:51:47;;;;;;;4.38;3.25;;;;;;;28.18;30.10;100352.47;4966279;28;20086;-80
2022/08/15 09:54:22;;;;;;;5.28;4.10;;;;;;;28.00;30.72;100354.75;4960458;28;20453;-80
2022/08/15 09:56:48;;;;;;;5.35;4.22;;;;;;;27.89;31.20;100359.56;4947167;28;20045;-81
2022/08/15 09:59:25;;;;;;;4.50;4.10;;;;;;;28.18;30.97;100351.66;4954096;28;20322;-80
2022/08/15 10:02:00;;;;;;;5.75;5.25;;;;;;;28.12;31.15;100354.09;4951827;28;20085;-79
2022/08/15 10:04:59;;;;;;;4.25;3.95;;;;;;;28.57;30.16;100345.00;4951170;28;20034;-80
2022/08/15 10:07:45;;;;;;;5.05;4.22;;;;;;;28.62;31.12;100346.13;4968144;28;20134;-79
2022/08/15 10:10:22;;;;;;;6.75;4.80;;;;;;;28.31;31.79;100339.19;4976101;28;20035;-78
2022/08/15 10:13:06;;;;;;;6.80;4.65;;;;;;;28.02;31.57;100345.47;4977252;28;20060;-74
2022/08/15 10:15:43;;;;;;;5.07;4.35;;;;;;;27.97;31.00;100349.75;4978229;28;20030;-77
2022/08/15 10:18:27;;;;;;;4.40;4.00;;;;;;;27.99;31.55;100329.75;4971492;28;20662;-79
2022/08/15 10:20:55;;;;;;;8.40;4.13;;;;;;;27.66;31.97;100337.41;4968912;28;20142;-79
2022/08/15 10:23:31;;;;;;;4.28;3.97;;;;;;;27.56;32.33;100337.63;4976950;28;20042;-77
2022/08/15 10:26:13;;;;;;;5.15;4.75;;;;;;;27.27;32.98;100333.97;4977097;28;20586;-77
2022/08/15 10:28:40;;;;;;;4.95;4.13;;;;;;;27.24;33.23;100336.19;4942801;28;20070;-78
2022/08/15 10:31:05;;;;;;;5.53;4.65;;;;;;;27.31;33.26;100337.09;4976577;28;20467;-80
2022/08/15 10:33:31;;;;;;;9.95;4.45;;;;;;;27.35;32.99;100329.53;4961503;28;20081;-78
2022/08/15 10:36:24;;;;;;;4.63;4.15;;;;;;;27.46;33.05;100324.53;4941981;28;20113;-76
2022/08/15 10:39:08;;;;;;;9.07;3.55;;;;;;;27.42;32.77;100331.28;4955340;28;20069;-78
2022/08/15 10:42:14;;;;;;;4.82;4.32;;;;;;;27.48;33.41;100335.06;4978332;28;20035;-79
2022/08/15 10:45:01;;;;;;;4.35;4.05;;;;;;;27.47;32.05;100328.88;4986890;28;20046;-77
2022/08/15 10:48:03;;;;;;;3.95;3.00;;;;;;;27.67;32.87;100331.00;4956320;28;20097;-78
2022/08/15 10:50:45;;;;;;;4.38;3.97;;;;;;;27.72;31.79;100328.59;4963017;28;20042;-78
2022/08/15 10:53:28;;;;;;;4.05;3.75;;;;;;;27.85;31.72;100334.13;4956787;28;20587;-79
2022/08/15 10:56:07;;;;;;;7.03;3.88;;;;;;;27.86;31.65;100330.41;4954953;28;20057;-77
2022/08/15 10:58:33;;;;;;;4.30;3.90;;;;;;;28.07;31.62;100328.78;4957161;28;20054;-79
2022/08/15 11:01:20;;;;;;;3.58;3.10;;;;;;;28.28;31.00;100326.16;4984576;28;20038;-76
2022/08/15 11:03:58;;;;;;;5.70;3.42;;;;;;;28.42;31.47;100320.91;4974842;28;20061;-78
2022/08/15 11:06:25;;;;;;;3.75;3.45;;;;;;;28.66;30.64;100322.38;4978540;28;20034;-78
2022/08/15 11:08:54;;;;;;;4.03;3.58;;;;;;;29.16;30.20;100323.97;4973660;28;20054;-79
2022/08/15 11:11:24;;;;;;;3.67;3.35;;;;;;;29.90;28.81;100317.09;4965498;28;20492;-78
2022/08/15 11:13:56;;;;;;;5.82;3.53;;;;;;;30.29;27.84;100323.63;4956822;28;20073;-79
2022/08/15 11:16:35;;;;;;;3.15;2.95;;;;;;;30.52;27.05;100311.59;4954442;28;20355;-77
2022/08/15 11:19:13;;;;;;;3.85;3.55;;;;;;;30.61;25.48;100314.97;4957641;28;20057;-78
2022/08/15 11:21:43;;;;;;;3.30;2.85;;;;;;;30.22;26.22;100309.31;4963046;28;20054;-78
2022/08/15 11:24:10;;;;;;;4.43;3.35;;;;;;;29.95;27.04;100308.38;4963477;28;20139;-77
2022/08/15 11:26:42;;;;;;;3.70;3.40;;;;;;;30.12;26.92;100317.78;4964126;28;20041;-78
2022/08/15 11:29:16;;;;;;;4.53;3.65;;;;;;;29.71;26.78;100309.78;4968430;28;20038;-76
2022/08/15 11:31:46;;;;;;;3.47;3.15;;;;;;;29.83;27.09;100313.53;4952442;28;20037;-79
2022/08/15 11:34:37;;;;;;;7.10;4.18;;;;;;;30.78;26.32;100311.63;4981457;28;20038;-79
2022/08/15 11:37:21;;;;;;;5.72;3.90;;;;;;;31.29;26.61;100306.56;4962829;28;20118;-76
2022/08/15 11:40:04;;;;;;;3.35;2.92;;;;;;;31.69;24.72;100311.81;4979149;28;20068;-76
2022/08/15 11:42:36;;;;;;;4.07;3.05;;;;;;;31.12;23.87;100307.03;4957598;28;20046;-79
2022/08/15 11:45:14;;;;;;;4.95;3.25;;;;;;;30.45;24.56;100308.09;4973510;28;20485;-77
2022/08/15 11:47:46;;;;;;;4.72;2.92;;;;;;;30.52;25.44;100311.59;4962798;28;20186;-74
2022/08/15 11:50:23;;;;;;;3.45;3.13;;;;;;;30.78;23.78;100306.22;4951281;28;20884;-78
2022/08/15 11:52:54;;;;;;;3.60;2.90;;;;;;;30.66;24.23;100307.06;4959608;28;20140;-76
2022/08/15 11:55:20;;;;;;;6.30;2.92;;;;;;;31.48;24.34;100299.47;4953766;28;20050;-78
2022/08/15 11:57:50;;;;;;;3.00;2.75;;;;;;;31.81;22.77;100296.59;4959718;28;20054;-77
2022/08/15 12:00:39;;;;;;;4.00;2.67;;;;;;;31.83;23.10;100299.91;4970613;28;20042;-79
2022/08/15 12:03:24;;;;;;;2.63;2.33;;;;;;;31.72;22.59;100297.91;4978212;28;20594;-77
2022/08/15 12:05:54;;;;;;;4.18;2.58;;;;;;;31.75;22.57;100300.16;4994177;28;20088;-77
2022/08/15 12:08:23;;;;;;;6.13;2.97;;;;;;;32.18;22.70;100289.50;4982721;28;20049;-78